Frame Switch, Texas
Current Conditions -  °F | °C
As of 12:58 PM on Saturday 25 Oct 2014 (Local Time) from KGRK Reporting Station
Clear Clear  
Wind Chill: 83°   Ceiling: Unl
Heat Index: 83°   Visibility: 10mi
Dew Point: 60°   Wind: 3mph
Humidity: 47%   Direction: NA
Pressure: 30.16"   Gusts: NA
Location:  30.5793°N, 97.5096°W
Report Text: KGRK 251758Z AUTO VRB03KT 10SM CLR 28/16 A3016 RMK AO2 SLP205 T02810158 10281 20155 58010
Loading
Personal Weather Stations






























Interactive Weather Map
Tropical Storm Tracking
New forecast layout! Learn more

10-Day Weather Forecast

Advertisements
Track Severe Weather on mobile